METAR Data
IDs: Format: Raw Decoded Include TAF

Data at: 1318 UTC 10 Aug 2022

KCHS 101256Z 26004KT 10SM FEW030 SCT250 28/22 A3021 RMK AO2 SLP228 T02780217
KCHS 101156Z 29005KT 10SM SCT250 26/22 A3019 RMK AO2 SLP223 T02610217 10261 20233 53011
KCHS 101056Z 25003KT 10SM FEW040 SCT250 24/23 A3018 RMK AO2 SLP219 T02440228
KCHS 100956Z 22003KT 10SM FEW030 FEW250 24/23 A3017 RMK AO2 LTG DSNT S SLP215 T02390228
KCHS 100856Z 00000KT 10SM FEW030 24/23 A3016 RMK AO2 SLP213 T02440228 50003
KCHS 100756Z 26005KT 10SM FEW030 FEW050 26/24 A3017 RMK AO2 SLP214 OCNL LTGIC DSNT SE CB DSNT SE T02560239
KCHS 100656Z 24006KT 10SM CLR 26/24 A3016 RMK AO2 SLP212 T02560244
KCHS 100556Z 19005KT 10SM FEW220 25/24 A3015 RMK AO2 SLP210 T02500239 10283 20250 50004
KCHS 100456Z 23006KT 10SM CLR 26/24 A3016 RMK AO2 SLP213 T02610239 403330233
KCHS 100356Z 20005KT 10SM CLR 26/24 A3015 RMK AO2 SLP210 T02560239
KCHS 100256Z 18005KT 10SM FEW050 26/24 A3014 RMK AO2 SLP206 T02610239 51012
KCHS 100156Z 20006KT 10SM FEW050 27/24 A3014 RMK AO2 SLP205 T02670239
KCHS 100056Z 20008KT 10SM FEW050 27/23 A3012 RMK AO2 SLP199 T02720233
KCHS 092356Z 20008KT 10SM FEW040 FEW250 28/23 A3011 RMK AO2 SLP194 T02830228 10333 20283 53005
KCHS 092256Z 20011KT 10SM FEW055 30/22 A3010 RMK AO2 SLP191 T03000222
KCHS 092156Z 18012KT 10SM FEW040 31/21 A3009 RMK AO2 SLP189 T03110211
KCHS 092056Z 20011KT 10SM FEW040 FEW055 32/22 A3009 RMK AO2 SLP188 T03220222 56017
KCHS 091956Z 20011KT 10SM SCT040 SCT055 32/22 A3010 RMK AO2 SLP191 T03170222
KCHS 091856Z 22010G17KT 10SM BKN045 BKN060 33/22 A3013 RMK AO2 SLP201 T03280222
KCHS 091756Z 21008KT 10SM SCT040 32/22 A3014 RMK AO2 SLP205 T03220217 10328 20261 58009
KCHS 091656Z 23008KT 10SM SCT040 31/22 A3015 RMK AO2 SLP209 T03060217
KCHS 091556Z 21009KT 200V260 10SM SCT035 31/22 A3016 RMK AO2 SLP214 T03110222
KCHS 091456Z 22009KT 10SM FEW035 FEW250 30/22 A3017 RMK AO2 SLP214 T03000222 51004
KCHS 091356Z 24008KT 10SM FEW030 FEW250 29/22 A3017 RMK AO2 SLP214 T02940217